createdAt,value
2017-12-16T00:01:57.807Z,12.90
2017-12-16T00:04:26.161Z,14.53
2017-12-16T00:06:53.683Z,13.57
2017-12-16T00:09:21.237Z,13.73
2017-12-16T00:11:48.833Z,14.20
2017-12-16T00:14:16.423Z,10.27
2017-12-16T00:16:44.021Z,11.33
2017-12-16T00:19:11.578Z,11.37
2017-12-16T00:21:39.153Z,15.03
2017-12-16T00:24:06.696Z,13.53
2017-12-16T00:26:34.213Z,13.80
2017-12-16T00:29:02.568Z,11.00
2017-12-16T00:31:30.122Z,16.43
2017-12-16T00:33:57.693Z,14.63
2017-12-16T00:36:25.267Z,11.93
2017-12-16T00:38:53.551Z,13.73
2017-12-16T00:41:21.101Z,15.23
2017-12-16T00:43:49.425Z,14.63
2017-12-16T00:46:17.000Z,11.67
2017-12-16T00:48:44.553Z,12.97
2017-12-16T00:51:12.094Z,12.83
2017-12-16T00:53:39.676Z,13.17
2017-12-16T00:56:07.195Z,16.30
2017-12-16T00:58:34.720Z,15.40
2017-12-16T01:01:02.276Z,12.90
2017-12-16T01:03:29.801Z,13.43
2017-12-16T01:05:57.347Z,14.57
2017-12-16T01:08:24.913Z,14.90
2017-12-16T01:10:52.487Z,19.87
2017-12-16T01:13:20.005Z,19.97
2017-12-16T01:15:47.545Z,20.60
2017-12-16T01:18:15.112Z,20.13
2017-12-16T01:20:42.712Z,14.43
2017-12-16T01:23:10.273Z,15.13
2017-12-16T01:25:37.791Z,14.10
2017-12-16T01:28:06.483Z,12.77
2017-12-16T01:30:34.759Z,12.13
2017-12-16T01:33:02.303Z,13.60
2017-12-16T01:35:41.725Z,19.10
2017-12-16T01:38:20.998Z,14.30
2017-12-16T01:40:48.529Z,14.83
2017-12-16T01:43:16.080Z,13.00
2017-12-16T01:45:43.641Z,12.97
2017-12-16T01:48:11.205Z,13.20
2017-12-16T01:50:38.755Z,17.17
2017-12-16T01:53:06.291Z,11.60
2017-12-16T01:55:33.852Z,12.63
2017-12-16T01:58:01.409Z,14.67
2017-12-16T02:00:28.932Z,11.33
2017-12-16T02:02:57.208Z,14.40
2017-12-16T02:05:24.748Z,11.77
2017-12-16T02:07:52.373Z,13.10
2017-12-16T02:10:19.933Z,11.37
2017-12-16T02:12:47.470Z,15.47
2017-12-16T02:15:14.976Z,13.63
2017-12-16T02:17:42.553Z,15.03
2017-12-16T02:20:10.068Z,13.77
2017-12-16T02:22:37.636Z,12.70
2017-12-16T02:25:05.188Z,14.50
2017-12-16T02:27:32.747Z,12.20
2017-12-16T02:30:00.297Z,14.03
2017-12-16T02:32:27.884Z,12.77
2017-12-16T02:34:55.451Z,10.77
2017-12-16T02:37:22.965Z,11.03
2017-12-16T02:39:50.525Z,10.30
2017-12-16T02:42:18.085Z,9.13
2017-12-16T02:44:46.519Z,11.73
2017-12-16T02:47:14.036Z,8.93
2017-12-16T02:49:41.583Z,9.13
2017-12-16T02:52:09.138Z,9.63
2017-12-16T02:54:36.657Z,12.67
2017-12-16T02:57:04.200Z,11.97
2017-12-16T02:59:31.726Z,11.57
2017-12-16T03:01:59.352Z,13.13
2017-12-16T03:04:27.639Z,11.27
2017-12-16T03:06:55.172Z,11.27
2017-12-16T03:09:22.734Z,12.37
2017-12-16T03:11:50.289Z,10.30
2017-12-16T03:14:17.822Z,10.17
2017-12-16T03:16:45.342Z,9.53
2017-12-16T03:19:13.668Z,11.10
2017-12-16T03:21:41.185Z,8.97
2017-12-16T03:24:08.788Z,11.63
2017-12-16T03:26:36.334Z,8.57
2017-12-16T03:29:04.650Z,9.43
2017-12-16T03:31:32.193Z,11.90
2017-12-16T03:33:59.745Z,8.80
2017-12-16T03:36:27.330Z,8.20
2017-12-16T03:38:54.994Z,10.97
2017-12-16T03:41:22.588Z,10.33
2017-12-16T03:43:50.105Z,12.00
2017-12-16T03:46:17.667Z,11.83
2017-12-16T03:48:45.193Z,11.50
2017-12-16T03:51:12.713Z,10.13
2017-12-16T03:53:40.270Z,9.10
2017-12-16T03:56:07.806Z,9.13
2017-12-16T03:58:35.418Z,11.07
2017-12-16T04:01:02.954Z,8.37
2017-12-16T04:03:30.504Z,6.87
2017-12-16T04:05:58.078Z,6.30
2017-12-16T04:08:25.651Z,6.23
2017-12-16T04:10:53.202Z,5.43
2017-12-16T04:13:20.729Z,8.90
2017-12-16T04:15:48.312Z,5.63
2017-12-16T04:18:15.868Z,7.43
2017-12-16T04:20:43.378Z,6.87
2017-12-16T04:23:11.690Z,5.63
2017-12-16T04:25:39.222Z,7.17
2017-12-16T04:28:06.781Z,11.47
2017-12-16T04:30:34.337Z,10.00
2017-12-16T04:33:01.885Z,8.33
2017-12-16T04:35:29.448Z,6.67
2017-12-16T04:37:57.005Z,6.23
2017-12-16T04:40:24.571Z,6.67
2017-12-16T04:42:52.188Z,9.23
2017-12-16T04:45:19.707Z,6.37
2017-12-16T04:47:47.254Z,6.87
2017-12-16T04:50:14.870Z,5.70
2017-12-16T04:52:42.423Z,9.93
2017-12-16T04:55:09.990Z,11.67
2017-12-16T04:57:37.519Z,12.50
2017-12-16T05:00:05.088Z,12.47
2017-12-16T05:02:32.658Z,8.50
2017-12-16T05:05:00.220Z,14.60
2017-12-16T05:07:28.553Z,13.27
2017-12-16T05:09:56.125Z,10.17
2017-12-16T05:12:23.674Z,11.30
2017-12-16T05:14:51.254Z,9.87
2017-12-16T05:17:18.783Z,14.20
2017-12-16T05:19:46.356Z,12.53
2017-12-16T05:22:13.927Z,9.47
2017-12-16T05:24:41.489Z,8.00
2017-12-16T05:27:09.039Z,9.40
2017-12-16T05:29:36.563Z,5.77
2017-12-16T05:32:04.134Z,10.77
2017-12-16T05:34:31.708Z,7.63
2017-12-16T05:36:59.257Z,7.83
2017-12-16T05:39:26.813Z,6.87
2017-12-16T05:41:54.418Z,7.07
2017-12-16T05:44:21.962Z,7.97
2017-12-16T05:46:49.515Z,6.50
2017-12-16T05:49:17.085Z,6.00
2017-12-16T05:51:44.610Z,5.37
2017-12-16T05:54:12.170Z,9.23
2017-12-16T05:56:39.703Z,6.57
2017-12-16T05:59:07.271Z,6.93
2017-12-16T06:01:34.839Z,6.87
2017-12-16T06:04:02.398Z,7.47
2017-12-16T06:06:29.970Z,7.33
2017-12-16T06:08:57.491Z,6.87
2017-12-16T06:11:25.050Z,4.53
2017-12-16T06:13:53.010Z,5.63
2017-12-16T06:16:20.576Z,8.20
2017-12-16T06:18:48.156Z,5.87
2017-12-16T06:21:15.679Z,5.53
2017-12-16T06:23:43.999Z,9.63
2017-12-16T06:26:11.526Z,8.63
2017-12-16T06:28:39.859Z,7.83
2017-12-16T06:31:07.407Z,7.53
2017-12-16T06:33:34.936Z,9.33
2017-12-16T06:36:02.493Z,8.43
2017-12-16T06:38:30.020Z,8.27
2017-12-16T06:40:57.639Z,11.40
2017-12-16T06:43:25.208Z,5.03
2017-12-16T06:45:52.812Z,7.47
2017-12-16T06:48:20.368Z,6.10
2017-12-16T06:50:47.927Z,6.23
2017-12-16T06:53:15.472Z,5.60
2017-12-16T06:55:42.997Z,7.47
2017-12-16T06:58:10.602Z,7.33
2017-12-16T07:00:38.157Z,8.13
2017-12-16T07:03:05.728Z,5.97
2017-12-16T07:05:33.247Z,7.93
2017-12-16T07:08:00.831Z,9.57
2017-12-16T07:10:28.395Z,8.43
2017-12-16T07:12:55.967Z,6.97
2017-12-16T07:15:24.269Z,7.43
2017-12-16T07:17:51.835Z,8.87
2017-12-16T07:20:19.390Z,5.53
2017-12-16T07:22:46.913Z,7.13
2017-12-16T07:25:14.478Z,9.77
2017-12-16T07:27:42.814Z,11.13
2017-12-16T07:30:10.374Z,6.33
2017-12-16T07:32:37.948Z,10.33
2017-12-16T07:35:05.466Z,6.33
2017-12-16T07:37:32.985Z,6.70
2017-12-16T07:40:00.547Z,8.27
2017-12-16T07:42:28.178Z,8.50
2017-12-16T07:44:55.705Z,8.73
2017-12-16T07:47:23.270Z,8.03
2017-12-16T07:49:50.845Z,9.03
2017-12-16T07:52:18.362Z,6.43
2017-12-16T07:54:46.682Z,9.33
2017-12-16T07:57:14.356Z,7.23
2017-12-16T07:59:41.901Z,7.97
2017-12-16T08:02:09.460Z,8.50
2017-12-16T08:04:37.009Z,11.03
2017-12-16T08:07:04.570Z,10.17
2017-12-16T08:09:32.140Z,7.93
2017-12-16T08:11:59.655Z,9.27
2017-12-16T08:14:27.251Z,11.27
2017-12-16T08:16:54.776Z,15.00
2017-12-16T08:19:22.306Z,6.37
2017-12-16T08:21:49.848Z,9.50
2017-12-16T08:24:17.388Z,7.10
2017-12-16T08:26:45.178Z,8.73
2017-12-16T08:29:12.754Z,8.53
2017-12-16T08:31:40.305Z,9.90
2017-12-16T08:34:07.862Z,13.67
2017-12-16T08:36:35.421Z,8.27
2017-12-16T08:39:02.973Z,8.17
2017-12-16T08:41:30.534Z,9.87
2017-12-16T08:43:58.176Z,13.17
2017-12-16T08:46:25.705Z,9.77
2017-12-16T08:48:53.277Z,12.90
2017-12-16T08:51:21.605Z,8.37
2017-12-16T08:53:49.210Z,10.77
2017-12-16T08:56:16.799Z,14.50
2017-12-16T08:58:44.326Z,10.43
2017-12-16T09:01:11.900Z,9.07
2017-12-16T09:03:39.558Z,9.77
2017-12-16T09:06:07.089Z,8.33
2017-12-16T09:08:34.656Z,11.57
2017-12-16T09:11:02.194Z,10.37
2017-12-16T09:13:29.757Z,11.43
2017-12-16T09:15:57.400Z,11.37
2017-12-16T09:18:24.975Z,9.87
2017-12-16T09:20:52.583Z,10.17
2017-12-16T09:23:20.146Z,12.20
2017-12-16T09:25:47.686Z,8.67
2017-12-16T09:28:15.267Z,11.23
2017-12-16T09:30:42.826Z,10.67
2017-12-16T09:33:10.394Z,9.70
2017-12-16T09:35:37.931Z,9.27
2017-12-16T09:38:05.505Z,8.50
2017-12-16T09:40:33.078Z,8.50
2017-12-16T09:43:00.635Z,8.23
2017-12-16T09:45:28.170Z,7.73
2017-12-16T09:47:55.783Z,8.90
2017-12-16T09:50:23.789Z,8.93
2017-12-16T09:52:51.399Z,9.00
2017-12-16T09:55:18.950Z,9.13
2017-12-16T09:57:47.302Z,11.80
2017-12-16T10:00:15.594Z,8.97
2017-12-16T10:02:43.188Z,9.30
2017-12-16T10:05:10.744Z,12.23
2017-12-16T10:07:38.357Z,14.23
2017-12-16T10:10:05.927Z,12.13
2017-12-16T10:12:33.485Z,9.27
2017-12-16T10:15:01.100Z,10.13
2017-12-16T10:17:28.624Z,12.00
2017-12-16T10:19:56.181Z,12.97
2017-12-16T10:22:24.054Z,12.93
2017-12-16T10:24:51.647Z,10.20
2017-12-16T10:27:19.206Z,10.07
2017-12-16T10:29:46.834Z,11.23
2017-12-16T10:32:14.402Z,10.43
2017-12-16T10:34:41.952Z,12.70
2017-12-16T10:37:09.566Z,9.40
2017-12-16T10:39:37.134Z,15.37
2017-12-16T10:42:05.451Z,11.47
2017-12-16T10:44:33.384Z,17.70
2017-12-16T10:47:00.979Z,11.30
2017-12-16T10:49:28.546Z,11.20
2017-12-16T10:51:56.189Z,11.57
2017-12-16T10:54:23.743Z,11.27
2017-12-16T10:56:51.363Z,10.87
2017-12-16T10:59:18.903Z,11.53
2017-12-16T11:01:46.499Z,19.07
2017-12-16T11:04:14.082Z,11.43
2017-12-16T11:06:41.630Z,11.33
2017-12-16T11:09:09.972Z,11.73
2017-12-16T11:11:37.508Z,11.57
2017-12-16T11:14:05.122Z,12.07
2017-12-16T11:16:32.846Z,10.53
2017-12-16T11:19:00.423Z,10.97
2017-12-16T11:21:28.083Z,11.13
2017-12-16T11:23:55.958Z,13.63
2017-12-16T11:26:24.318Z,11.60
2017-12-16T11:28:51.902Z,11.30
2017-12-16T11:31:19.430Z,10.97
2017-12-16T11:33:47.030Z,11.70
2017-12-16T11:36:14.592Z,13.13
2017-12-16T11:38:42.930Z,11.53
2017-12-16T11:41:10.671Z,11.43
2017-12-16T11:43:38.185Z,14.13
2017-12-16T11:46:05.724Z,12.83
2017-12-16T11:48:33.286Z,13.50
2017-12-16T11:51:00.845Z,11.27
2017-12-16T11:53:29.163Z,10.90
2017-12-16T11:55:56.706Z,11.20
2017-12-16T11:58:24.279Z,14.03
2017-12-16T12:00:51.835Z,10.77
2017-12-16T12:03:20.118Z,11.77
2017-12-16T12:05:47.734Z,9.33
2017-12-16T12:08:15.265Z,13.50
2017-12-16T12:10:42.850Z,14.30
2017-12-16T12:13:10.389Z,10.37
2017-12-16T12:15:37.981Z,10.60
2017-12-16T12:18:05.670Z,11.60
2017-12-16T12:20:33.255Z,10.60
2017-12-16T12:23:00.827Z,10.90
2017-12-16T12:25:28.409Z,10.43
2017-12-16T12:27:55.975Z,10.53
2017-12-16T12:30:23.510Z,10.30
2017-12-16T12:32:51.075Z,11.03
2017-12-16T12:35:18.714Z,11.17
2017-12-16T12:37:46.260Z,10.83
2017-12-16T12:40:13.789Z,10.83
2017-12-16T12:42:41.355Z,10.37
2017-12-16T12:45:08.945Z,14.10
2017-12-16T12:47:36.498Z,10.63
2017-12-16T12:50:04.151Z,11.43
2017-12-16T12:52:31.685Z,12.97
2017-12-16T12:54:59.259Z,12.73
2017-12-16T12:57:27.570Z,15.03
2017-12-16T12:59:55.208Z,12.30
2017-12-16T13:02:22.777Z,13.37
2017-12-16T13:04:50.366Z,12.50
2017-12-16T13:07:17.952Z,15.10
2017-12-16T13:09:45.480Z,15.37
2017-12-16T13:12:13.040Z,14.50
2017-12-16T13:14:40.565Z,12.07
2017-12-16T13:17:08.130Z,13.30
2017-12-16T13:19:35.695Z,13.47
2017-12-16T13:22:04.015Z,13.83
2017-12-16T13:24:31.597Z,12.80
2017-12-16T13:26:59.154Z,14.97
2017-12-16T13:29:26.728Z,13.47
2017-12-16T13:31:54.297Z,12.97
2017-12-16T13:34:21.892Z,16.23
2017-12-16T13:36:49.411Z,12.53
2017-12-16T13:39:16.988Z,15.03
2017-12-16T13:41:44.601Z,12.97
2017-12-16T13:44:12.154Z,16.47
2017-12-16T13:46:39.750Z,19.33
2017-12-16T13:49:07.343Z,15.30
2017-12-16T13:51:34.870Z,17.50
2017-12-16T13:54:02.493Z,15.77
2017-12-16T13:56:30.076Z,15.63
2017-12-16T13:58:57.656Z,15.47
2017-12-16T14:01:25.274Z,17.40
2017-12-16T14:03:52.843Z,16.57
2017-12-16T14:06:20.362Z,16.50
2017-12-16T14:08:47.915Z,15.43
2017-12-16T14:11:16.246Z,18.07
2017-12-16T14:13:43.778Z,19.23
2017-12-16T14:16:11.544Z,17.17
2017-12-16T14:18:39.080Z,17.93
2017-12-16T14:21:06.739Z,17.27
2017-12-16T14:23:35.046Z,15.87
2017-12-16T14:26:02.614Z,18.53
2017-12-16T14:28:30.193Z,21.90
2017-12-16T14:30:57.825Z,17.07
2017-12-16T14:33:25.422Z,19.47
2017-12-16T14:35:53.028Z,19.17
2017-12-16T14:38:20.571Z,18.97
2017-12-16T14:40:48.135Z,18.97
2017-12-16T14:43:15.719Z,21.73
2017-12-16T14:45:43.299Z,20.10
2017-12-16T14:48:10.877Z,20.70
2017-12-16T14:50:38.440Z,21.20
2017-12-16T14:53:05.981Z,18.13
2017-12-16T14:55:33.573Z,16.87
2017-12-16T14:58:01.897Z,18.57
2017-12-16T15:00:29.462Z,15.87
2017-12-16T15:02:57.009Z,19.07
2017-12-16T15:05:24.581Z,18.70
2017-12-16T15:07:52.155Z,18.07
2017-12-16T15:10:19.675Z,20.57
2017-12-16T15:12:47.250Z,25.40
2017-12-16T15:15:14.830Z,24.17
2017-12-16T15:17:42.455Z,29.00
2017-12-16T15:20:10.027Z,24.57
2017-12-16T15:22:37.597Z,24.23
2017-12-16T15:25:05.175Z,22.80
2017-12-16T15:27:32.708Z,21.57
2017-12-16T15:30:00.279Z,23.53
2017-12-16T15:32:27.814Z,21.23
2017-12-16T15:34:55.373Z,20.23
2017-12-16T15:37:23.705Z,21.60
2017-12-16T15:39:51.237Z,17.33
2017-12-16T15:42:18.810Z,19.83
2017-12-16T15:44:46.384Z,20.47
2017-12-16T15:47:13.991Z,21.20
2017-12-16T15:49:41.609Z,20.77
2017-12-16T15:52:09.202Z,18.57
2017-12-16T15:54:36.798Z,17.20
2017-12-16T15:57:04.361Z,15.77
2017-12-16T15:59:31.947Z,13.53
2017-12-16T16:01:59.504Z,13.93
2017-12-16T16:04:27.050Z,14.43
2017-12-16T16:06:54.628Z,14.23
2017-12-16T16:09:22.205Z,15.90
2017-12-16T16:11:49.788Z,16.63
2017-12-16T16:14:17.361Z,14.30
2017-12-16T16:16:44.914Z,15.67
2017-12-16T16:19:13.247Z,16.60
2017-12-16T16:21:40.807Z,19.10
2017-12-16T16:24:08.337Z,20.73
2017-12-16T16:26:35.899Z,16.10
2017-12-16T16:29:03.434Z,17.33
2017-12-16T16:31:31.770Z,18.53
2017-12-16T16:33:59.350Z,22.30
2017-12-16T16:36:26.986Z,27.53
2017-12-16T16:38:54.519Z,17.33
2017-12-16T16:41:22.061Z,17.87
2017-12-16T16:43:49.641Z,16.93
2017-12-16T16:46:17.268Z,18.13
2017-12-16T16:48:44.860Z,18.00
2017-12-16T16:51:12.450Z,82.03
2017-12-16T16:53:40.081Z,115.63
2017-12-16T16:56:07.645Z,40.93
2017-12-16T16:58:35.233Z,24.83
2017-12-16T17:01:02.808Z,21.07
2017-12-16T17:03:30.410Z,18.87
2017-12-16T17:05:57.963Z,16.53
2017-12-16T17:08:25.506Z,17.40
2017-12-16T17:10:53.850Z,16.97
2017-12-16T17:13:21.420Z,17.30
2017-12-16T17:15:49.016Z,16.93
2017-12-16T17:18:16.597Z,18.07
2017-12-16T17:20:44.217Z,17.63
2017-12-16T17:23:11.848Z,16.30
2017-12-16T17:25:39.372Z,18.17
2017-12-16T17:28:06.938Z,18.47
2017-12-16T17:30:34.548Z,16.47
2017-12-16T17:33:02.093Z,17.57
2017-12-16T17:35:29.653Z,15.87
2017-12-16T17:37:57.262Z,17.20
2017-12-16T17:40:24.850Z,18.53
2017-12-16T17:42:52.520Z,15.27
2017-12-16T17:45:20.066Z,14.97
2017-12-16T17:47:47.643Z,18.40
2017-12-16T17:50:15.198Z,15.70
2017-12-16T17:52:42.810Z,14.37
2017-12-16T17:55:11.117Z,17.07
2017-12-16T17:57:38.760Z,15.43
2017-12-16T18:00:06.325Z,15.17
2017-12-16T18:02:33.953Z,16.67
2017-12-16T18:05:01.536Z,17.83
2017-12-16T18:07:29.113Z,19.50
2017-12-16T18:09:56.671Z,18.77
2017-12-16T18:12:24.244Z,18.97
2017-12-16T18:14:51.918Z,18.13
2017-12-16T18:17:19.494Z,17.87
2017-12-16T18:19:47.115Z,19.60
2017-12-16T18:22:14.705Z,17.90
2017-12-16T18:24:42.239Z,23.13
2017-12-16T18:27:09.854Z,25.67
2017-12-16T18:29:37.379Z,20.53
2017-12-16T18:32:04.989Z,17.43
2017-12-16T18:34:32.594Z,20.23
2017-12-16T18:37:00.174Z,17.93
2017-12-16T18:39:27.776Z,16.67
2017-12-16T18:41:55.368Z,19.20
2017-12-16T18:44:23.013Z,19.87
2017-12-16T18:46:50.645Z,16.47
2017-12-16T18:49:18.361Z,18.37
2017-12-16T18:51:45.918Z,21.67
2017-12-16T18:54:13.617Z,18.40
2017-12-16T18:56:41.203Z,18.37
2017-12-16T18:59:08.827Z,19.70
2017-12-16T19:01:36.454Z,16.80
2017-12-16T19:04:04.063Z,20.73
2017-12-16T19:06:31.674Z,18.57
2017-12-16T19:08:59.250Z,22.67
2017-12-16T19:11:26.871Z,18.70
2017-12-16T19:13:54.461Z,22.53
2017-12-16T19:16:22.092Z,20.33
2017-12-16T19:18:49.711Z,22.13
2017-12-16T19:21:17.292Z,22.87
2017-12-16T19:23:44.901Z,19.83
2017-12-16T19:26:12.508Z,20.87
2017-12-16T19:28:40.114Z,20.17
2017-12-16T19:31:07.678Z,22.13
2017-12-16T19:33:35.231Z,21.93
2017-12-16T19:36:02.849Z,17.70
2017-12-16T19:38:30.432Z,20.23
2017-12-16T19:40:58.050Z,18.73
2017-12-16T19:43:25.622Z,19.00
2017-12-16T19:45:53.223Z,19.33
2017-12-16T19:48:21.565Z,18.67
2017-12-16T19:50:49.173Z,22.20
2017-12-16T19:53:16.785Z,20.07
2017-12-16T19:55:44.357Z,24.07
2017-12-16T19:58:11.964Z,19.17
2017-12-16T20:00:39.585Z,18.77
2017-12-16T20:03:07.171Z,20.60
2017-12-16T20:05:34.758Z,19.23
2017-12-16T20:08:02.341Z,19.27
2017-12-16T20:10:29.922Z,20.00
2017-12-16T20:12:57.529Z,18.77
2017-12-16T20:15:25.153Z,17.70
2017-12-16T20:17:53.501Z,18.73
2017-12-16T20:20:21.100Z,16.67
2017-12-16T20:22:48.724Z,16.60
2017-12-16T20:25:16.325Z,19.27
2017-12-16T20:27:43.939Z,15.73
2017-12-16T20:30:11.516Z,16.70
2017-12-16T20:32:39.073Z,22.00
2017-12-16T20:35:06.679Z,21.63
2017-12-16T20:37:34.322Z,21.47
2017-12-16T20:40:02.061Z,21.23
2017-12-16T20:42:29.680Z,19.30
2017-12-16T20:44:57.299Z,22.37
2017-12-16T20:47:24.870Z,17.37
2017-12-16T20:49:53.252Z,17.00
2017-12-16T20:52:21.607Z,17.03
2017-12-16T20:54:49.341Z,17.43
2017-12-16T20:57:17.838Z,20.27
2017-12-16T20:59:45.511Z,18.13
2017-12-16T21:02:14.150Z,17.73
2017-12-16T21:04:41.889Z,18.13
2017-12-16T21:07:10.395Z,16.67
2017-12-16T21:09:38.033Z,19.53
2017-12-16T21:12:05.644Z,16.93
2017-12-16T21:14:33.261Z,19.40
2017-12-16T21:17:00.938Z,17.87
2017-12-16T21:19:28.584Z,16.60
2017-12-16T21:21:56.977Z,19.43
2017-12-16T21:24:24.595Z,19.30
2017-12-16T21:26:53.037Z,18.93
2017-12-16T21:29:20.641Z,22.03
2017-12-16T21:31:48.349Z,18.60
2017-12-16T21:34:15.925Z,19.83
2017-12-16T21:36:43.538Z,19.20
2017-12-16T21:39:11.133Z,18.23
2017-12-16T21:41:38.742Z,21.43
2017-12-16T21:44:06.328Z,16.80
2017-12-16T21:46:33.939Z,16.63
2017-12-16T21:49:01.504Z,20.03
2017-12-16T21:51:29.131Z,24.50
2017-12-16T21:53:56.711Z,22.83
2017-12-16T21:56:24.330Z,18.37
2017-12-16T21:58:51.948Z,18.97
2017-12-16T22:01:19.560Z,18.70
2017-12-16T22:03:47.173Z,23.17
2017-12-16T22:06:14.751Z,14.80
2017-12-16T22:08:42.383Z,20.60
2017-12-16T22:11:09.957Z,17.30
2017-12-16T22:13:37.571Z,16.57
2017-12-16T22:16:05.925Z,19.53
2017-12-16T22:18:33.538Z,14.43
2017-12-16T22:21:01.191Z,18.03
2017-12-16T22:23:29.550Z,19.83
2017-12-16T22:25:57.171Z,19.63
2017-12-16T22:28:24.756Z,16.17
2017-12-16T22:30:53.159Z,17.03
2017-12-16T22:33:20.741Z,18.77
2017-12-16T22:35:49.087Z,16.27
2017-12-16T22:38:16.704Z,20.43
2017-12-16T22:40:44.314Z,19.50
2017-12-16T22:43:11.882Z,16.73
2017-12-16T22:45:39.517Z,18.30
2017-12-16T22:48:07.093Z,14.20
2017-12-16T22:50:34.715Z,18.70
2017-12-16T22:53:02.298Z,20.00
2017-12-16T22:55:29.913Z,19.70
2017-12-16T22:57:57.489Z,24.33
2017-12-16T23:00:25.110Z,17.20
2017-12-16T23:02:52.737Z,22.03
2017-12-16T23:05:21.202Z,20.27
2017-12-16T23:07:48.825Z,17.03
2017-12-16T23:10:16.434Z,17.23
2017-12-16T23:12:44.788Z,16.57
2017-12-16T23:15:12.401Z,20.77
2017-12-16T23:17:40.022Z,20.67
2017-12-16T23:20:07.583Z,19.50
2017-12-16T23:22:35.155Z,17.63
2017-12-16T23:25:02.753Z,18.90
2017-12-16T23:27:30.344Z,22.03
2017-12-16T23:29:57.932Z,20.57
2017-12-16T23:32:25.547Z,20.17
2017-12-16T23:34:53.158Z,20.17
2017-12-16T23:37:21.537Z,22.37
2017-12-16T23:39:49.924Z,19.17
2017-12-16T23:42:18.268Z,22.47
2017-12-16T23:44:45.836Z,21.50
2017-12-16T23:47:13.400Z,19.83
2017-12-16T23:49:41.004Z,20.23
2017-12-16T23:52:08.604Z,17.27
2017-12-16T23:54:36.162Z,18.93
2017-12-16T23:57:03.759Z,18.17
2017-12-16T23:59:31.331Z,17.20
